createdAt,value
2018-02-07T00:00:54.249Z,1.10
2018-02-07T00:03:20.423Z,1.10
2018-02-07T00:05:46.655Z,1.10
2018-02-07T00:08:12.809Z,1.00
2018-02-07T00:10:39.008Z,1.00
2018-02-07T00:13:05.181Z,1.00
2018-02-07T00:15:31.373Z,1.00
2018-02-07T00:17:57.912Z,1.10
2018-02-07T00:20:24.841Z,1.00
2018-02-07T00:22:52.578Z,1.00
2018-02-07T00:25:18.904Z,1.00
2018-02-07T00:27:45.053Z,1.00
2018-02-07T00:30:11.268Z,1.00
2018-02-07T00:32:37.465Z,1.00
2018-02-07T00:35:18.555Z,1.10
2018-02-07T00:37:44.760Z,0.90
2018-02-07T00:40:11.670Z,0.80
2018-02-07T00:42:37.891Z,0.90
2018-02-07T00:45:04.076Z,0.90
2018-02-07T00:47:30.258Z,0.90
2018-02-07T00:49:56.405Z,0.90
2018-02-07T00:52:23.914Z,1.00
2018-02-07T00:54:50.066Z,0.90
2018-02-07T00:57:16.250Z,0.90
2018-02-07T00:59:42.431Z,1.00
2018-02-07T01:02:08.662Z,0.90
2018-02-07T01:04:34.835Z,1.00
2018-02-07T01:07:01.106Z,0.90
2018-02-07T01:09:27.303Z,1.10
2018-02-07T01:11:53.441Z,0.90
2018-02-07T01:14:19.624Z,0.80
2018-02-07T01:16:47.476Z,0.90
2018-02-07T01:19:13.654Z,0.90
2018-02-07T01:21:39.855Z,0.90
2018-02-07T01:24:06.088Z,0.80
2018-02-07T01:26:32.427Z,0.80
2018-02-07T01:28:58.702Z,0.80
2018-02-07T01:31:24.836Z,0.80
2018-02-07T01:33:50.974Z,0.70
2018-02-07T01:36:17.172Z,0.70
2018-02-07T01:38:43.325Z,0.60
2018-02-07T01:41:09.518Z,0.60
2018-02-07T01:43:35.658Z,0.50
2018-02-07T01:46:01.867Z,0.60
2018-02-07T01:48:28.004Z,0.50
2018-02-07T01:50:54.132Z,0.50
2018-02-07T01:53:20.316Z,0.50
2018-02-07T01:55:47.210Z,0.50
2018-02-07T01:58:13.759Z,0.50
2018-02-07T02:00:40.654Z,0.40
2018-02-07T02:03:06.889Z,0.40
2018-02-07T02:05:33.058Z,0.50
2018-02-07T02:07:59.241Z,0.50
2018-02-07T02:10:25.382Z,0.50
2018-02-07T02:12:51.570Z,0.40
2018-02-07T02:15:18.532Z,0.50
2018-02-07T02:17:44.746Z,0.50
2018-02-07T02:20:11.790Z,0.50
2018-02-07T02:22:37.950Z,0.50
2018-02-07T02:25:04.139Z,0.60
2018-02-07T02:27:30.373Z,0.60
2018-02-07T02:39:46.643Z,0.40
2018-02-07T02:42:13.536Z,0.50
2018-02-07T02:44:39.705Z,0.70
2018-02-07T02:47:05.877Z,0.50
2018-02-07T02:49:32.058Z,0.40
2018-02-07T02:51:58.322Z,0.40
2018-02-07T02:54:24.489Z,0.50
2018-02-07T02:56:50.661Z,0.40
2018-02-07T02:59:17.587Z,0.40
2018-02-07T03:01:43.744Z,0.40
2018-02-07T03:04:09.921Z,0.40
2018-02-07T03:06:36.090Z,0.40
2018-02-07T03:09:03.031Z,0.40
2018-02-07T03:11:29.979Z,0.40
2018-02-07T03:13:56.904Z,0.40
2018-02-07T03:16:23.110Z,0.40
2018-02-07T03:18:49.258Z,0.40
2018-02-07T03:21:16.882Z,0.40
2018-02-07T03:23:43.099Z,0.40
2018-02-07T03:26:09.302Z,0.40
2018-02-07T03:28:36.278Z,0.30
2018-02-07T03:31:02.542Z,0.30
2018-02-07T03:33:28.742Z,0.40
2018-02-07T03:35:54.938Z,0.20
2018-02-07T03:38:21.854Z,0.20
2018-02-07T03:40:48.274Z,0.10
2018-02-07T03:43:14.448Z,0.10
2018-02-07T03:45:41.399Z,0.10
2018-02-07T03:48:07.586Z,0.00
2018-02-07T03:50:33.769Z,0.10
2018-02-07T03:52:59.923Z,0.00
2018-02-07T03:55:26.151Z,0.00
2018-02-07T03:57:52.421Z,0.00
2018-02-07T04:00:19.575Z,0.00
2018-02-07T04:02:46.516Z,0.00
2018-02-07T04:05:13.508Z,0.00
2018-02-07T04:07:39.678Z,0.00
2018-02-07T04:10:05.868Z,-0.10
2018-02-07T04:12:32.051Z,-0.10
2018-02-07T04:14:58.982Z,-0.10
2018-02-07T04:17:25.169Z,-0.20
2018-02-07T04:19:51.328Z,-0.20
2018-02-07T04:22:17.486Z,-0.10
2018-02-07T04:24:46.384Z,0.00
2018-02-07T04:27:13.430Z,0.10
2018-02-07T04:29:40.355Z,0.10
2018-02-07T04:32:07.327Z,0.20
2018-02-07T04:34:34.239Z,0.20
2018-02-07T04:37:00.482Z,0.10
2018-02-07T04:39:27.399Z,0.10
2018-02-07T04:41:53.579Z,0.10
2018-02-07T04:44:20.505Z,0.00
2018-02-07T04:46:47.450Z,0.00
2018-02-07T04:49:14.350Z,0.00
2018-02-07T04:51:40.504Z,0.10
2018-02-07T04:54:06.666Z,0.20
2018-02-07T04:56:32.839Z,0.00
2018-02-07T04:58:59.242Z,0.00
2018-02-07T05:01:25.385Z,-0.10
2018-02-07T05:03:51.946Z,-0.10
2018-02-07T05:06:18.114Z,-0.20
2018-02-07T05:08:45.042Z,-0.20
2018-02-07T05:11:11.196Z,-0.20
2018-02-07T05:13:37.414Z,-0.10
2018-02-07T05:16:04.590Z,-0.20
2018-02-07T05:18:30.739Z,-0.30
2018-02-07T05:20:56.943Z,-0.30
2018-02-07T05:23:23.096Z,-0.20
2018-02-07T05:25:49.261Z,-0.30
2018-02-07T05:28:15.430Z,-0.30
2018-02-07T05:30:41.598Z,-0.20
2018-02-07T05:33:07.801Z,-0.20
2018-02-07T05:35:34.000Z,-0.10
2018-02-07T05:38:00.240Z,-0.10
2018-02-07T05:40:26.394Z,-0.10
2018-02-07T05:42:52.569Z,-1.90
2018-02-07T05:45:19.518Z,-0.20
2018-02-07T05:47:46.466Z,-0.20
2018-02-07T05:50:13.407Z,-0.30
2018-02-07T05:52:40.286Z,-0.30
2018-02-07T05:55:06.420Z,-0.50
2018-02-07T05:57:32.581Z,-0.40
2018-02-07T05:59:58.758Z,-0.40
2018-02-07T06:02:24.927Z,-0.40
2018-02-07T06:04:51.098Z,-0.30
2018-02-07T06:07:18.011Z,-0.30
2018-02-07T06:09:44.163Z,-0.30
2018-02-07T06:12:11.053Z,-0.30
2018-02-07T06:14:37.195Z,-0.40
2018-02-07T06:17:03.340Z,-0.40
2018-02-07T06:19:29.547Z,-0.40
2018-02-07T06:21:55.700Z,-0.40
2018-02-07T06:24:21.904Z,-0.40
2018-02-07T06:26:48.073Z,-0.40
2018-02-07T06:29:14.999Z,-0.40
2018-02-07T06:31:41.199Z,-0.50
2018-02-07T06:34:07.322Z,-0.40
2018-02-07T06:36:33.585Z,-0.40
2018-02-07T06:38:59.779Z,-0.40
2018-02-07T06:41:25.986Z,-0.40
2018-02-07T06:43:52.153Z,-0.40
2018-02-07T06:46:18.328Z,-0.40
2018-02-07T06:48:44.532Z,-0.50
2018-02-07T06:51:11.500Z,-0.40
2018-02-07T06:53:37.628Z,-0.50
2018-02-07T06:56:03.810Z,-0.40
2018-02-07T06:58:29.981Z,-0.40
2018-02-07T07:00:56.860Z,-0.40
2018-02-07T07:03:23.038Z,-0.40
2018-02-07T07:05:49.966Z,-0.40
2018-02-07T07:08:16.219Z,-0.40
2018-02-07T07:10:43.155Z,-0.30
2018-02-07T07:13:09.322Z,-0.30
2018-02-07T07:15:35.492Z,-0.20
2018-02-07T07:18:01.680Z,-0.10
2018-02-07T07:20:27.804Z,-0.10
2018-02-07T07:22:53.999Z,0.00
2018-02-07T07:25:20.879Z,0.00
2018-02-07T07:27:47.056Z,0.00
2018-02-07T07:30:13.273Z,0.00
2018-02-07T07:32:39.457Z,0.00
2018-02-07T07:35:05.640Z,0.10
2018-02-07T07:37:46.770Z,0.10
2018-02-07T07:42:40.860Z,0.20
2018-02-07T07:45:07.062Z,0.20
2018-02-07T07:47:33.988Z,0.20
2018-02-07T07:50:00.193Z,0.30
2018-02-07T07:52:26.510Z,0.30
2018-02-07T07:54:54.570Z,0.40
2018-02-07T07:57:20.746Z,0.40
2018-02-07T07:59:47.690Z,0.50
2018-02-07T08:02:13.833Z,0.50
2018-02-07T08:04:40.801Z,0.60
2018-02-07T08:07:07.339Z,0.70
2018-02-07T08:09:33.513Z,0.70
2018-02-07T08:11:59.823Z,0.70
2018-02-07T08:14:26.014Z,0.70
2018-02-07T08:16:52.912Z,0.80
2018-02-07T08:19:19.065Z,0.80
2018-02-07T08:21:45.291Z,0.90
2018-02-07T08:24:11.422Z,1.00
2018-02-07T08:26:38.507Z,1.10
2018-02-07T08:29:04.949Z,1.20
2018-02-07T08:31:31.311Z,1.30
2018-02-07T08:33:57.512Z,1.40
2018-02-07T08:36:23.655Z,1.50
2018-02-07T08:38:49.825Z,1.60
2018-02-07T08:41:16.752Z,1.80
2018-02-07T08:43:42.949Z,2.00
2018-02-07T08:46:09.096Z,2.20
2018-02-07T08:48:35.287Z,2.20
2018-02-07T08:51:01.485Z,2.40
2018-02-07T08:53:28.397Z,2.80
2018-02-07T08:55:54.574Z,3.10
2018-02-07T08:58:21.459Z,3.40
2018-02-07T09:00:47.660Z,3.80
2018-02-07T09:03:13.792Z,3.80
2018-02-07T09:05:39.975Z,4.20
2018-02-07T09:08:07.622Z,4.90
2018-02-07T09:10:33.746Z,4.90
2018-02-07T09:13:00.203Z,5.20
2018-02-07T09:15:26.461Z,5.70
2018-02-07T09:17:52.650Z,5.60
2018-02-07T09:20:18.865Z,6.20
2018-02-07T09:22:45.391Z,6.50
2018-02-07T09:25:11.560Z,6.90
2018-02-07T09:27:38.454Z,7.40
2018-02-07T09:30:04.671Z,7.80
2018-02-07T09:32:31.042Z,7.90
2018-02-07T09:34:57.246Z,8.00
2018-02-07T09:37:23.379Z,7.90
2018-02-07T09:39:49.553Z,7.90
2018-02-07T09:42:16.529Z,8.50
2018-02-07T09:44:42.735Z,8.40
2018-02-07T09:47:09.690Z,9.00
2018-02-07T09:49:35.883Z,9.00
2018-02-07T09:52:02.964Z,9.80
2018-02-07T09:54:29.874Z,9.90
2018-02-07T09:56:56.036Z,9.80
2018-02-07T09:59:23.166Z,9.80
2018-02-07T10:01:49.353Z,9.80
2018-02-07T10:04:15.518Z,9.90
2018-02-07T10:06:41.908Z,9.20
2018-02-07T10:09:08.058Z,8.70
2018-02-07T10:11:34.226Z,8.80
2018-02-07T10:14:01.164Z,9.90
2018-02-07T10:16:28.881Z,10.20
2018-02-07T10:18:55.062Z,9.80
2018-02-07T10:21:21.960Z,10.10
2018-02-07T10:23:48.136Z,9.90
2018-02-07T10:26:15.035Z,10.20
2018-02-07T10:28:41.186Z,10.60
2018-02-07T10:31:08.154Z,10.50
2018-02-07T10:33:35.119Z,10.80
2018-02-07T10:36:01.351Z,11.00
2018-02-07T10:38:27.533Z,11.00
2018-02-07T10:40:53.718Z,10.70
2018-02-07T10:43:19.929Z,10.40
2018-02-07T10:45:46.141Z,11.00
2018-02-07T10:48:13.047Z,11.50
2018-02-07T10:50:39.293Z,12.00
2018-02-07T10:53:06.926Z,12.30
2018-02-07T10:55:33.081Z,12.40
2018-02-07T10:58:00.436Z,12.70
2018-02-07T11:00:27.725Z,12.60
2018-02-07T11:02:55.014Z,12.30
2018-02-07T11:05:21.178Z,12.50
2018-02-07T11:07:47.368Z,12.60
2018-02-07T11:10:13.571Z,12.70
2018-02-07T11:12:39.728Z,12.60
2018-02-07T11:15:05.966Z,12.80
2018-02-07T11:17:32.130Z,12.50
2018-02-07T11:19:59.046Z,12.40
2018-02-07T11:22:25.223Z,12.60
2018-02-07T11:24:51.373Z,12.90
2018-02-07T11:27:17.578Z,13.00
2018-02-07T11:29:43.788Z,12.90
2018-02-07T11:32:10.733Z,13.30
2018-02-07T11:34:37.605Z,13.50
2018-02-07T11:37:03.838Z,13.90
2018-02-07T11:39:30.081Z,14.00
2018-02-07T11:41:56.266Z,14.10
2018-02-07T11:44:22.818Z,14.20
2018-02-07T11:46:49.711Z,14.10
2018-02-07T11:49:15.933Z,13.30
2018-02-07T11:51:42.946Z,12.00
2018-02-07T11:54:09.147Z,11.00
2018-02-07T11:56:35.321Z,9.70
2018-02-07T11:59:01.514Z,8.80
2018-02-07T12:01:28.415Z,8.10
2018-02-07T12:03:54.604Z,7.60
2018-02-07T12:06:20.807Z,7.50
2018-02-07T12:08:47.712Z,7.00
2018-02-07T12:11:14.263Z,7.00
2018-02-07T12:13:40.499Z,7.10
2018-02-07T12:16:06.694Z,7.30
2018-02-07T12:18:32.864Z,7.20
2018-02-07T12:20:59.034Z,7.20
2018-02-07T12:23:25.221Z,7.30
2018-02-07T12:25:51.381Z,7.30
2018-02-07T12:28:17.562Z,7.30
2018-02-07T12:30:44.182Z,7.30
2018-02-07T12:33:10.797Z,7.20
2018-02-07T12:35:36.928Z,7.40
2018-02-07T12:38:03.140Z,7.40
2018-02-07T12:40:29.300Z,7.40
2018-02-07T12:42:55.474Z,7.40
2018-02-07T12:45:22.399Z,7.60
2018-02-07T12:47:48.578Z,7.80
2018-02-07T12:50:14.741Z,8.10
2018-02-07T12:52:40.964Z,8.60
2018-02-07T12:55:07.130Z,8.60
2018-02-07T12:57:34.053Z,9.50
2018-02-07T13:00:00.250Z,9.50
2018-02-07T13:02:26.396Z,9.90
2018-02-07T13:04:52.602Z,9.90
2018-02-07T13:07:18.745Z,10.10
2018-02-07T13:09:44.922Z,10.30
2018-02-07T13:12:11.493Z,10.60
2018-02-07T13:14:37.640Z,10.80
2018-02-07T13:17:04.563Z,11.20
2018-02-07T13:19:30.762Z,11.30
2018-02-07T13:21:57.625Z,11.50
2018-02-07T13:24:23.770Z,11.80
2018-02-07T13:26:49.946Z,11.40
2018-02-07T13:29:16.902Z,11.30
2018-02-07T13:31:43.811Z,11.20
2018-02-07T13:34:10.010Z,11.80
2018-02-07T13:36:36.237Z,12.50
2018-02-07T13:39:02.492Z,12.10
2018-02-07T13:41:28.759Z,11.50
2018-02-07T13:43:56.209Z,11.40
2018-02-07T13:46:23.134Z,11.70
2018-02-07T13:48:49.345Z,11.60
2018-02-07T13:51:15.573Z,11.00
2018-02-07T13:53:41.875Z,10.40
2018-02-07T13:56:09.010Z,10.10
2018-02-07T13:58:35.180Z,9.70
2018-02-07T14:01:01.439Z,9.60
2018-02-07T14:03:29.191Z,9.40
2018-02-07T14:05:55.406Z,9.20
2018-02-07T14:08:21.629Z,9.00
2018-02-07T14:10:47.858Z,8.80
2018-02-07T14:13:14.045Z,8.50
2018-02-07T14:15:40.945Z,8.20
2018-02-07T14:18:07.181Z,8.20
2018-02-07T14:20:33.702Z,7.90
2018-02-07T14:22:59.922Z,7.90
2018-02-07T14:25:26.141Z,7.80
2018-02-07T14:27:52.299Z,7.70
2018-02-07T14:30:18.855Z,7.50
2018-02-07T14:32:45.023Z,7.40
2018-02-07T14:35:11.235Z,7.40
2018-02-07T14:37:39.431Z,7.50
2018-02-07T14:40:06.019Z,7.40
2018-02-07T14:42:32.240Z,7.40
2018-02-07T14:44:58.428Z,7.40
2018-02-07T14:47:27.344Z,7.40
2018-02-07T14:49:53.575Z,7.50
2018-02-07T14:52:19.824Z,7.50
2018-02-07T14:54:46.013Z,7.60
2018-02-07T14:57:13.565Z,7.70
2018-02-07T14:59:39.751Z,7.80
2018-02-07T15:02:06.669Z,7.70
2018-02-07T15:04:32.834Z,7.60
2018-02-07T15:06:59.411Z,7.40
2018-02-07T15:09:25.938Z,7.20
2018-02-07T15:11:52.502Z,7.00
2018-02-07T15:14:19.446Z,6.80
2018-02-07T15:16:46.018Z,6.80
2018-02-07T15:19:12.204Z,6.70
2018-02-07T15:21:38.387Z,6.60
2018-02-07T15:24:05.318Z,6.50
2018-02-07T15:26:33.011Z,6.40
2018-02-07T15:28:59.203Z,6.30
2018-02-07T15:31:25.711Z,6.10
2018-02-07T15:33:51.880Z,6.20
2018-02-07T15:36:18.792Z,6.10
2018-02-07T15:38:45.424Z,6.00
2018-02-07T15:41:11.601Z,6.10
2018-02-07T15:43:38.565Z,5.70
2018-02-07T15:46:05.120Z,6.00
2018-02-07T15:48:31.300Z,5.70
2018-02-07T15:50:57.466Z,5.30
2018-02-07T15:53:23.678Z,5.50
2018-02-07T15:55:52.440Z,5.50
2018-02-07T15:58:19.836Z,5.40
2018-02-07T16:00:46.048Z,5.40
2018-02-07T16:03:12.965Z,5.40
2018-02-07T16:05:39.910Z,5.30
2018-02-07T16:08:06.512Z,5.50
2018-02-07T16:10:33.443Z,5.30
2018-02-07T16:12:59.814Z,5.00
2018-02-07T16:15:26.386Z,4.60
2018-02-07T16:20:20.480Z,4.90
2018-02-07T16:22:48.405Z,5.20
2018-02-07T16:25:14.620Z,4.90
2018-02-07T16:27:40.840Z,5.50
2018-02-07T16:30:07.034Z,5.20
2018-02-07T16:32:33.997Z,5.10
2018-02-07T16:35:00.249Z,5.20
2018-02-07T16:37:27.203Z,5.00
2018-02-07T16:39:55.393Z,5.00
2018-02-07T16:42:22.019Z,5.00
2018-02-07T16:44:48.979Z,4.80
2018-02-07T16:47:30.094Z,4.80
2018-02-07T16:52:36.068Z,4.60
2018-02-07T16:55:03.012Z,4.50
2018-02-07T16:57:29.597Z,4.50
2018-02-07T16:59:56.555Z,4.40
2018-02-07T17:02:22.751Z,4.40
2018-02-07T17:04:48.955Z,4.30
2018-02-07T17:07:15.854Z,4.10
2018-02-07T17:09:42.026Z,4.10
2018-02-07T17:12:10.763Z,4.10
2018-02-07T17:14:36.956Z,4.10
2018-02-07T17:17:03.904Z,4.10
2018-02-07T17:19:30.114Z,4.00
2018-02-07T17:21:56.697Z,4.00
2018-02-07T17:24:22.881Z,3.90
2018-02-07T17:26:49.838Z,3.90
2018-02-07T17:29:16.360Z,3.90
2018-02-07T17:31:43.297Z,3.80
2018-02-07T17:34:09.490Z,3.80
2018-02-07T17:36:35.841Z,3.70
2018-02-07T17:39:02.143Z,3.80
2018-02-07T17:41:28.406Z,3.70
2018-02-07T17:43:54.651Z,3.70
2018-02-07T17:46:21.614Z,3.60
2018-02-07T17:48:47.842Z,3.60
2018-02-07T17:51:14.817Z,3.60
2018-02-07T17:53:41.042Z,3.60
2018-02-07T17:56:07.228Z,3.60
2018-02-07T17:58:33.440Z,3.60
2018-02-07T18:00:59.593Z,3.60
2018-02-07T18:03:26.611Z,3.50
2018-02-07T18:05:52.818Z,3.50
2018-02-07T18:08:19.040Z,3.40
2018-02-07T18:10:45.282Z,3.40
2018-02-07T18:13:11.516Z,3.40
2018-02-07T18:15:37.700Z,3.70
2018-02-07T18:18:03.906Z,3.70
2018-02-07T18:20:30.112Z,3.60
2018-02-07T18:22:56.358Z,3.50
2018-02-07T18:25:23.354Z,3.40
2018-02-07T18:27:49.534Z,3.40
2018-02-07T18:30:16.534Z,3.30
2018-02-07T18:32:42.729Z,3.30
2018-02-07T18:35:08.913Z,3.30
2018-02-07T18:37:35.140Z,3.30
2018-02-07T18:40:01.354Z,3.30
2018-02-07T18:42:27.530Z,3.30
2018-02-07T18:44:53.726Z,3.30
2018-02-07T18:47:19.938Z,3.30
2018-02-07T18:49:46.111Z,3.30
2018-02-07T18:52:13.100Z,3.20
2018-02-07T18:54:39.277Z,3.20
2018-02-07T18:57:06.218Z,3.20
2018-02-07T18:59:47.318Z,3.10
2018-02-07T19:02:14.343Z,3.10
2018-02-07T19:04:41.332Z,3.10
2018-02-07T19:07:08.292Z,3.10
2018-02-07T19:09:34.501Z,3.10
2018-02-07T19:12:00.681Z,3.10
2018-02-07T19:14:26.943Z,3.10
2018-02-07T19:16:53.824Z,3.10
2018-02-07T19:19:20.131Z,3.10
2018-02-07T19:21:46.352Z,3.10
2018-02-07T19:24:12.634Z,3.00
2018-02-07T19:26:38.852Z,2.90
2018-02-07T19:29:05.095Z,2.90
2018-02-07T19:31:31.373Z,3.00
2018-02-07T19:33:58.356Z,2.90
2018-02-07T19:36:25.301Z,2.90
2018-02-07T19:38:51.481Z,2.90
2018-02-07T19:41:18.057Z,2.90
2018-02-07T19:43:44.258Z,2.80
2018-02-07T19:46:10.520Z,2.70
2018-02-07T19:48:36.714Z,2.70
2018-02-07T19:51:03.706Z,2.70
2018-02-07T19:53:29.915Z,2.70
2018-02-07T19:55:56.128Z,2.80
2018-02-07T19:58:22.327Z,2.70
2018-02-07T20:00:48.567Z,2.70
2018-02-07T20:03:15.925Z,2.70
2018-02-07T20:05:42.921Z,2.60
2018-02-07T20:08:09.120Z,2.60
2018-02-07T20:10:35.357Z,2.60
2018-02-07T20:13:01.579Z,3.00
2018-02-07T20:15:27.805Z,2.60
2018-02-07T20:17:53.967Z,2.60
2018-02-07T20:20:20.204Z,2.60
2018-02-07T20:22:46.425Z,2.60
2018-02-07T20:25:12.648Z,2.60
2018-02-07T20:27:38.837Z,2.60
2018-02-07T20:30:05.852Z,2.60
2018-02-07T20:32:32.072Z,2.60
2018-02-07T20:34:58.251Z,2.60
2018-02-07T20:37:24.427Z,2.60
2018-02-07T20:39:51.417Z,2.60
2018-02-07T20:42:18.473Z,2.60
2018-02-07T20:44:44.658Z,2.60
2018-02-07T20:47:11.206Z,2.50
2018-02-07T20:49:38.073Z,2.50
2018-02-07T20:52:04.361Z,2.50
2018-02-07T20:54:31.013Z,2.40
2018-02-07T20:56:57.221Z,2.30
2018-02-07T20:59:23.682Z,2.30
2018-02-07T21:01:50.703Z,2.40
2018-02-07T21:04:16.935Z,2.30
2018-02-07T21:06:43.172Z,2.30
2018-02-07T21:09:09.371Z,2.30
2018-02-07T21:11:35.653Z,2.30
2018-02-07T21:14:01.844Z,2.30
2018-02-07T21:16:28.088Z,2.30
2018-02-07T21:18:54.271Z,2.30
2018-02-07T21:21:20.455Z,2.30
2018-02-07T21:24:01.610Z,2.30
2018-02-07T21:26:27.840Z,2.30
2018-02-07T21:28:54.042Z,2.20
2018-02-07T21:31:20.733Z,2.20
2018-02-07T21:33:47.034Z,2.10
2018-02-07T21:36:13.248Z,2.20
2018-02-07T21:38:39.846Z,2.20
2018-02-07T21:41:06.820Z,2.20
2018-02-07T21:43:34.023Z,2.20
2018-02-07T21:46:00.295Z,2.20
2018-02-07T21:48:26.466Z,2.20
2018-02-07T21:50:52.654Z,2.30
2018-02-07T21:53:18.854Z,2.40
2018-02-07T21:55:45.020Z,2.30
2018-02-07T21:58:11.214Z,2.30
2018-02-07T22:00:38.139Z,2.20
2018-02-07T22:03:04.340Z,2.20
2018-02-07T22:05:30.575Z,2.20
2018-02-07T22:07:56.746Z,2.10
2018-02-07T22:10:23.813Z,2.10
2018-02-07T22:12:50.777Z,2.10
2018-02-07T22:15:17.018Z,2.10
2018-02-07T22:17:43.217Z,2.00
2018-02-07T22:20:09.420Z,2.00
2018-02-07T22:22:35.623Z,2.00
2018-02-07T22:25:01.872Z,1.90
2018-02-07T22:27:28.072Z,1.90
2018-02-07T22:29:54.296Z,1.90
2018-02-07T22:32:20.555Z,1.80
2018-02-07T22:34:48.239Z,1.90
2018-02-07T22:37:15.156Z,1.90
2018-02-07T22:39:41.392Z,1.90
2018-02-07T22:42:07.601Z,1.90
2018-02-07T22:44:33.792Z,2.00
2018-02-07T22:46:59.957Z,2.10
2018-02-07T22:49:26.143Z,2.10
2018-02-07T22:51:52.334Z,2.10
2018-02-07T22:54:18.537Z,2.20
2018-02-07T22:56:44.779Z,2.20
2018-02-07T22:59:10.996Z,2.20
2018-02-07T23:01:37.162Z,2.20
2018-02-07T23:04:03.353Z,2.30
2018-02-07T23:06:29.561Z,2.30
2018-02-07T23:08:55.794Z,2.20
2018-02-07T23:11:22.695Z,2.30
2018-02-07T23:13:49.663Z,2.30
2018-02-07T23:16:15.842Z,2.30
2018-02-07T23:18:42.007Z,2.30
2018-02-07T23:21:08.883Z,2.20
2018-02-07T23:23:35.109Z,2.20
2018-02-07T23:26:01.305Z,2.30
2018-02-07T23:28:28.210Z,2.20
2018-02-07T23:30:54.382Z,2.20
2018-02-07T23:33:21.301Z,2.10
2018-02-07T23:35:47.510Z,2.10
2018-02-07T23:38:13.713Z,2.10
2018-02-07T23:40:39.885Z,2.20
2018-02-07T23:43:06.064Z,2.20
2018-02-07T23:45:32.225Z,2.20
2018-02-07T23:47:58.364Z,2.20
2018-02-07T23:50:24.546Z,2.10
2018-02-07T23:52:50.699Z,2.10
2018-02-07T23:55:16.923Z,2.00
2018-02-07T23:57:43.109Z,2.00
